createdAt,value
2023-03-24T00:00:27.194Z,86.44
2023-03-24T00:02:54.496Z,86.48
2023-03-24T00:05:22.844Z,86.73
2023-03-24T00:07:54.758Z,86.41
2023-03-24T00:10:23.299Z,86.91
2023-03-24T00:12:51.416Z,85.72
2023-03-24T00:15:21.339Z,86.64
2023-03-24T00:17:53.098Z,86.68
2023-03-24T00:20:22.492Z,86.02
2023-03-24T00:22:57.256Z,86.46
2023-03-24T00:25:28.624Z,86.67
2023-03-24T00:27:58.498Z,87.17
2023-03-24T00:30:26.436Z,88.18
2023-03-24T00:32:54.171Z,88.17
2023-03-24T00:35:22.068Z,87.54
2023-03-24T00:37:52.238Z,87.92
2023-03-24T00:40:21.211Z,87.77
2023-03-24T00:42:50.743Z,88.18
2023-03-24T00:45:23.561Z,88.99
2023-03-24T00:47:54.300Z,89.25
2023-03-24T00:50:27.544Z,89.00
2023-03-24T00:52:55.997Z,89.41
2023-03-24T00:55:23.529Z,89.81
2023-03-24T00:57:53.217Z,89.13
2023-03-24T01:00:25.606Z,89.70
2023-03-24T01:02:54.968Z,89.79
2023-03-24T01:05:28.224Z,90.07
2023-03-24T01:08:04.613Z,90.19
2023-03-24T01:10:53.191Z,90.50
2023-03-24T01:13:26.175Z,90.43
2023-03-24T01:15:57.017Z,90.35
2023-03-24T01:18:24.511Z,91.03
2023-03-24T01:20:53.887Z,90.41
2023-03-24T01:23:26.001Z,90.71
2023-03-24T01:25:54.678Z,90.95
2023-03-24T01:28:25.253Z,90.68
2023-03-24T01:30:53.456Z,90.31
2023-03-24T01:33:21.695Z,90.77
2023-03-24T01:35:48.824Z,90.76
2023-03-24T01:38:15.980Z,91.35
2023-03-24T01:40:47.258Z,91.18
2023-03-24T01:43:24.190Z,90.55
2023-03-24T01:46:22.586Z,90.40
2023-03-24T01:48:51.966Z,91.04
2023-03-24T01:51:27.607Z,90.31
2023-03-24T01:54:00.601Z,90.95
2023-03-24T01:56:31.746Z,90.41
2023-03-24T01:59:02.972Z,90.29
2023-03-24T02:01:31.715Z,91.00
2023-03-24T02:04:00.513Z,90.60
2023-03-24T02:06:27.762Z,90.82
2023-03-24T02:08:58.114Z,90.61
2023-03-24T02:11:28.627Z,90.65
2023-03-24T02:13:55.957Z,91.20
2023-03-24T02:16:54.967Z,91.32
2023-03-24T02:19:47.219Z,90.59
2023-03-24T02:22:39.436Z,90.30
2023-03-24T02:25:43.674Z,90.78
2023-03-24T02:28:52.972Z,90.46
2023-03-24T02:31:29.405Z,91.35
2023-03-24T02:34:07.598Z,90.90
2023-03-24T02:36:54.791Z,91.47
2023-03-24T02:39:37.487Z,91.01
2023-03-24T02:42:23.793Z,90.78
2023-03-24T02:45:11.919Z,91.04
2023-03-24T02:47:57.784Z,91.54
2023-03-24T02:50:33.795Z,91.66
2023-03-24T02:53:20.639Z,91.81
2023-03-24T02:56:01.216Z,91.50
2023-03-24T02:58:49.849Z,91.75
2023-03-24T03:01:31.890Z,91.24
2023-03-24T03:04:12.706Z,92.15
2023-03-24T03:06:43.651Z,92.42
2023-03-24T03:09:16.192Z,91.63
2023-03-24T03:11:49.366Z,91.81
2023-03-24T03:14:26.337Z,92.71
2023-03-24T03:17:01.757Z,91.95
2023-03-24T03:19:36.626Z,92.12
2023-03-24T03:25:56.567Z,92.13
2023-03-24T03:28:30.077Z,92.25
2023-03-24T03:31:06.129Z,92.76
2023-03-24T03:33:40.817Z,92.36
2023-03-24T03:36:17.667Z,92.05
2023-03-24T03:39:14.072Z,91.64
2023-03-24T03:41:41.172Z,92.54
2023-03-24T03:44:08.327Z,92.40
2023-03-24T03:46:36.675Z,92.11
2023-03-24T03:49:06.706Z,92.46
2023-03-24T03:51:34.883Z,92.74
2023-03-24T03:54:06.870Z,91.92
2023-03-24T03:56:36.926Z,92.51
2023-03-24T03:59:06.378Z,92.69
2023-03-24T04:01:37.520Z,92.21
2023-03-24T04:04:18.217Z,92.08
2023-03-24T04:06:54.017Z,92.33
2023-03-24T04:09:26.896Z,91.61
2023-03-24T04:12:19.113Z,92.36
2023-03-24T04:15:10.019Z,92.18
2023-03-24T04:17:59.955Z,91.45
2023-03-24T04:20:34.548Z,91.65
2023-03-24T04:23:15.081Z,92.48
2023-03-24T04:26:10.651Z,91.90
2023-03-24T04:28:43.521Z,91.37
2023-03-24T04:31:26.211Z,91.45
2023-03-24T04:34:03.813Z,92.36
2023-03-24T04:36:44.987Z,92.41
2023-03-24T04:39:17.305Z,92.03
2023-03-24T04:41:47.643Z,92.49
2023-03-24T04:44:17.829Z,91.84
2023-03-24T04:46:44.923Z,92.59
2023-03-24T04:49:11.860Z,91.85
2023-03-24T04:51:39.236Z,92.00
2023-03-24T04:54:06.316Z,92.52
2023-03-24T04:57:02.018Z,91.93
2023-03-24T04:59:36.058Z,93.06
2023-03-24T05:02:03.430Z,92.41
2023-03-24T05:04:31.313Z,93.46
2023-03-24T05:06:58.417Z,92.50
2023-03-24T05:09:26.089Z,92.43
2023-03-24T05:11:53.267Z,93.02
2023-03-24T05:14:20.665Z,92.70
2023-03-24T05:16:47.779Z,92.70
2023-03-24T05:19:15.084Z,93.38
2023-03-24T05:21:42.433Z,93.03
2023-03-24T05:24:09.309Z,93.26
2023-03-24T05:26:36.301Z,93.15
2023-03-24T05:29:03.622Z,92.64
2023-03-24T05:31:30.765Z,92.80
2023-03-24T05:33:57.590Z,91.87
2023-03-24T05:36:24.553Z,92.88
2023-03-24T05:38:51.522Z,92.81
2023-03-24T05:41:18.493Z,93.06
2023-03-24T05:43:48.144Z,92.98
2023-03-24T05:46:15.211Z,92.75
2023-03-24T05:48:42.365Z,92.81
2023-03-24T05:51:09.485Z,92.88
2023-03-24T05:53:36.674Z,93.23
2023-03-24T05:56:03.717Z,92.37
2023-03-24T05:58:30.763Z,92.38
2023-03-24T06:00:57.754Z,92.62
2023-03-24T06:03:25.240Z,92.55
2023-03-24T06:05:53.127Z,92.40
2023-03-24T06:08:20.130Z,92.62
2023-03-24T06:10:46.837Z,92.66
2023-03-24T06:13:13.781Z,93.03
2023-03-24T06:15:43.092Z,92.55
2023-03-24T06:18:10.463Z,93.34
2023-03-24T06:20:37.486Z,92.94
2023-03-24T06:23:04.448Z,92.54
2023-03-24T06:25:31.483Z,92.49
2023-03-24T06:28:04.410Z,92.14
2023-03-24T06:30:31.424Z,92.84
2023-03-24T06:32:58.441Z,92.51
2023-03-24T06:35:25.924Z,92.58
2023-03-24T06:37:53.176Z,92.77
2023-03-24T06:40:20.335Z,92.30
2023-03-24T06:42:47.559Z,92.14
2023-03-24T06:45:14.454Z,91.98
2023-03-24T06:47:41.486Z,92.25
2023-03-24T06:50:08.723Z,92.26
2023-03-24T06:52:35.840Z,90.61
2023-03-24T06:55:03.113Z,89.58
2023-03-24T06:57:30.211Z,89.46
2023-03-24T06:59:57.496Z,88.56
2023-03-24T07:02:24.519Z,88.31
2023-03-24T07:04:54.554Z,87.34
2023-03-24T07:07:56.896Z,86.52
2023-03-24T07:10:10.558Z,86.49
2023-03-24T07:12:37.849Z,85.39
2023-03-24T07:15:05.060Z,84.50
2023-03-24T07:17:32.033Z,84.56
2023-03-24T07:19:59.276Z,83.84
2023-03-24T07:22:26.246Z,83.90
2023-03-24T07:24:54.359Z,84.71
2023-03-24T07:27:21.478Z,83.73
2023-03-24T07:29:48.357Z,82.75
2023-03-24T07:32:15.337Z,81.53
2023-03-24T07:34:44.607Z,76.86
2023-03-24T07:37:11.947Z,75.99
2023-03-24T07:39:38.893Z,76.91
2023-03-24T07:42:06.393Z,78.70
2023-03-24T07:44:33.628Z,75.29
2023-03-24T07:47:00.556Z,73.43
2023-03-24T07:49:27.687Z,66.65
2023-03-24T07:51:54.569Z,62.33
2023-03-24T07:54:21.888Z,63.51
2023-03-24T07:56:48.853Z,64.02
2023-03-24T07:59:16.190Z,61.18
2023-03-24T08:01:44.217Z,61.62
2023-03-24T08:04:14.351Z,62.61
2023-03-24T08:06:43.823Z,62.66
2023-03-24T08:09:11.701Z,61.46
2023-03-24T08:11:39.608Z,61.31
2023-03-24T08:14:06.623Z,64.18
2023-03-24T08:16:33.494Z,64.10
2023-03-24T08:19:00.843Z,64.15
2023-03-24T08:21:27.882Z,63.09
2023-03-24T08:23:54.850Z,62.47
2023-03-24T08:26:22.847Z,61.07
2023-03-24T08:28:49.960Z,62.34
2023-03-24T08:31:17.019Z,62.20
2023-03-24T08:33:44.536Z,60.89
2023-03-24T08:36:14.347Z,61.20
2023-03-24T08:38:41.998Z,63.27
2023-03-24T08:41:08.942Z,63.72
2023-03-24T08:43:39.999Z,64.61
2023-03-24T08:46:11.201Z,64.46
2023-03-24T08:48:41.295Z,65.14
2023-03-24T08:51:16.723Z,66.74
2023-03-24T08:53:44.035Z,67.85
2023-03-24T08:56:11.359Z,67.39
2023-03-24T08:58:38.512Z,65.52
2023-03-24T09:01:05.504Z,61.51
2023-03-24T09:03:32.293Z,60.05
2023-03-24T09:05:59.664Z,61.34
2023-03-24T09:08:26.813Z,62.49
2023-03-24T09:10:54.082Z,64.74
2023-03-24T09:13:21.514Z,64.83
2023-03-24T09:15:52.165Z,65.50
2023-03-24T09:18:21.348Z,63.61
2023-03-24T09:20:49.412Z,60.85
2023-03-24T09:23:17.023Z,61.53
2023-03-24T09:25:44.048Z,64.32
2023-03-24T09:28:11.170Z,65.54
2023-03-24T09:30:38.284Z,66.60
2023-03-24T09:33:05.361Z,63.40
2023-03-24T09:35:32.260Z,54.87
2023-03-24T09:37:59.393Z,56.01
2023-03-24T09:40:32.640Z,58.54
2023-03-24T09:43:25.730Z,60.02
2023-03-24T09:45:58.954Z,61.62
2023-03-24T09:48:44.520Z,61.77
2023-03-24T09:51:20.902Z,62.17
2023-03-24T09:54:12.344Z,61.84
2023-03-24T09:56:41.794Z,60.52
2023-03-24T09:59:18.098Z,60.44
2023-03-24T10:01:46.040Z,61.22
2023-03-24T10:04:22.525Z,60.54
2023-03-24T10:06:55.847Z,61.17
2023-03-24T10:09:25.241Z,60.54
2023-03-24T10:12:00.822Z,59.86
2023-03-24T10:15:07.080Z,60.44
2023-03-24T10:17:54.561Z,60.05
2023-03-24T10:20:27.137Z,58.04
2023-03-24T10:23:17.647Z,56.97
2023-03-24T10:26:21.892Z,54.83
2023-03-24T10:29:02.716Z,55.64
2023-03-24T10:31:33.350Z,55.79
2023-03-24T10:34:01.163Z,57.39
2023-03-24T10:36:30.041Z,58.12
2023-03-24T10:38:58.724Z,58.58
2023-03-24T10:41:29.642Z,59.85
2023-03-24T10:43:58.439Z,60.16
2023-03-24T10:46:30.568Z,61.34
2023-03-24T10:49:12.523Z,60.69
2023-03-24T10:51:41.459Z,60.08
2023-03-24T10:54:20.580Z,55.80
2023-03-24T10:56:50.618Z,48.51
2023-03-24T10:59:32.466Z,46.71
2023-03-24T11:02:09.890Z,47.73
2023-03-24T11:04:42.109Z,50.23
2023-03-24T11:07:20.383Z,40.64
2023-03-24T11:09:59.123Z,28.88
2023-03-24T11:12:29.199Z,24.66
2023-03-24T11:15:21.302Z,23.41
2023-03-24T11:17:58.126Z,22.30
2023-03-24T11:20:28.220Z,19.97
2023-03-24T11:23:10.383Z,20.86
2023-03-24T11:25:40.717Z,21.88
2023-03-24T11:28:14.930Z,25.74
2023-03-24T11:31:12.152Z,31.76
2023-03-24T11:33:50.315Z,37.35
2023-03-24T11:36:35.237Z,32.78
2023-03-24T11:39:21.850Z,31.25
2023-03-24T11:42:10.935Z,33.43
2023-03-24T11:44:51.585Z,34.13
2023-03-24T11:47:31.340Z,33.60
2023-03-24T11:50:11.629Z,34.88
2023-03-24T11:52:48.332Z,36.08
2023-03-24T11:55:39.774Z,27.88
2023-03-24T11:58:32.644Z,27.18
2023-03-24T12:01:14.104Z,26.85
2023-03-24T12:04:08.561Z,22.23
2023-03-24T12:06:58.482Z,20.58
2023-03-24T12:09:42.446Z,24.79
2023-03-24T12:12:51.296Z,35.41
2023-03-24T12:15:29.452Z,41.90
2023-03-24T12:18:24.440Z,46.05
2023-03-24T12:21:25.042Z,49.10
2023-03-24T12:24:02.478Z,50.60
2023-03-24T12:26:31.156Z,50.72
2023-03-24T12:29:30.866Z,51.08
2023-03-24T12:32:35.306Z,51.23
2023-03-24T12:35:27.179Z,47.58
2023-03-24T12:38:30.587Z,45.92
2023-03-24T12:41:12.673Z,44.31
2023-03-24T12:43:42.493Z,43.07
2023-03-24T12:46:34.150Z,45.31
2023-03-24T12:49:16.746Z,45.41
2023-03-24T12:52:05.199Z,45.48
2023-03-24T12:55:05.050Z,45.47
2023-03-24T12:57:41.488Z,47.40
2023-03-24T13:00:29.060Z,48.07
2023-03-24T13:03:00.842Z,48.15
2023-03-24T13:05:32.036Z,47.62
2023-03-24T13:08:17.008Z,47.90
2023-03-24T13:10:44.798Z,46.70
2023-03-24T13:13:18.573Z,46.74
2023-03-24T13:16:17.642Z,45.96
2023-03-24T13:18:54.580Z,45.50
2023-03-24T13:21:26.203Z,44.58
2023-03-24T13:24:11.113Z,45.33
2023-03-24T13:26:58.542Z,42.91
2023-03-24T13:29:49.415Z,41.12
2023-03-24T13:32:25.949Z,42.14
2023-03-24T13:35:13.110Z,43.79
2023-03-24T13:37:45.693Z,44.27
2023-03-24T13:40:30.589Z,45.56
2023-03-24T13:43:00.424Z,46.25
2023-03-24T13:45:48.346Z,44.59
2023-03-24T13:48:22.495Z,45.92
2023-03-24T13:50:56.088Z,47.60
2023-03-24T13:53:43.889Z,46.94
2023-03-24T13:56:12.804Z,48.25
2023-03-24T13:59:05.631Z,47.99
2023-03-24T14:01:35.760Z,47.78
2023-03-24T14:04:25.586Z,47.49
2023-03-24T14:06:57.886Z,48.23
2023-03-24T14:09:33.920Z,48.42
2023-03-24T14:12:03.883Z,48.22
2023-03-24T14:14:35.784Z,46.95
2023-03-24T14:17:08.687Z,46.83
2023-03-24T14:19:40.742Z,47.63
2023-03-24T14:22:30.824Z,47.36
2023-03-24T14:25:01.439Z,46.86
2023-03-24T14:27:45.108Z,45.98
2023-03-24T14:30:41.337Z,46.08
2023-03-24T14:33:25.070Z,45.99
2023-03-24T14:36:12.327Z,46.87
2023-03-24T14:38:43.583Z,46.44
2023-03-24T14:41:17.272Z,46.38
2023-03-24T14:43:44.025Z,44.87
2023-03-24T14:46:22.112Z,45.67
2023-03-24T14:49:12.360Z,44.68
2023-03-24T14:51:44.619Z,45.71
2023-03-24T14:54:27.557Z,46.11
2023-03-24T14:56:57.028Z,46.12
2023-03-24T14:59:27.516Z,44.26
2023-03-24T15:02:03.162Z,44.33
2023-03-24T15:04:30.232Z,44.81
2023-03-24T15:06:57.076Z,44.22
2023-03-24T15:09:24.062Z,44.17
2023-03-24T15:11:52.286Z,43.26
2023-03-24T15:14:24.042Z,44.25
2023-03-24T15:16:55.058Z,43.96
2023-03-24T15:19:25.889Z,42.89
2023-03-24T15:22:05.675Z,42.41
2023-03-24T15:24:38.378Z,43.23
2023-03-24T15:27:08.318Z,42.83
2023-03-24T15:29:40.753Z,44.00
2023-03-24T15:32:15.830Z,43.87
2023-03-24T15:35:00.978Z,43.86
2023-03-24T15:37:43.257Z,43.19
2023-03-24T15:40:30.506Z,42.29
2023-03-24T15:43:08.195Z,43.31
2023-03-24T15:45:44.020Z,42.72
2023-03-24T15:48:18.787Z,42.31
2023-03-24T15:51:06.965Z,43.14
2023-03-24T15:53:33.694Z,44.63
2023-03-24T15:56:17.658Z,44.93
2023-03-24T15:58:53.761Z,45.97
2023-03-24T16:01:31.869Z,45.83
2023-03-24T16:04:01.505Z,46.69
2023-03-24T16:06:31.066Z,47.77
2023-03-24T16:09:05.150Z,46.11
2023-03-24T16:11:31.953Z,47.07
2023-03-24T16:14:01.623Z,46.70
2023-03-24T16:16:30.688Z,45.92
2023-03-24T16:18:59.558Z,46.34
2023-03-24T16:21:29.468Z,46.92
2023-03-24T16:23:58.201Z,46.27
2023-03-24T16:26:27.621Z,45.33
2023-03-24T16:28:59.338Z,45.80
2023-03-24T16:31:32.442Z,46.29
2023-03-24T16:33:59.619Z,46.12
2023-03-24T16:36:27.377Z,46.71
2023-03-24T16:38:56.382Z,47.32
2023-03-24T16:41:23.920Z,47.78
2023-03-24T16:43:51.242Z,47.78
2023-03-24T16:46:31.313Z,47.68
2023-03-24T16:48:59.274Z,47.47
2023-03-24T16:51:27.359Z,47.57
2023-03-24T16:53:54.186Z,49.04
2023-03-24T16:56:22.819Z,49.35
2023-03-24T16:58:55.903Z,48.55
2023-03-24T17:01:34.017Z,49.90
2023-03-24T17:04:03.662Z,50.13
2023-03-24T17:06:33.256Z,51.22
2023-03-24T17:09:00.361Z,52.22
2023-03-24T17:11:33.140Z,51.72
2023-03-24T17:14:05.060Z,51.92
2023-03-24T17:16:37.027Z,52.67
2023-03-24T17:19:07.636Z,53.60
2023-03-24T17:21:38.467Z,54.07
2023-03-24T17:24:07.118Z,55.79
2023-03-24T17:26:33.883Z,56.15
2023-03-24T17:29:00.706Z,56.73
2023-03-24T17:31:27.776Z,57.45
2023-03-24T17:33:54.909Z,58.36
2023-03-24T17:36:21.734Z,59.30
2023-03-24T17:38:49.014Z,59.96
2023-03-24T17:41:16.157Z,61.04
2023-03-24T17:43:46.849Z,61.41
2023-03-24T17:46:14.393Z,61.80
2023-03-24T17:48:43.510Z,61.95
2023-03-24T17:51:12.066Z,62.65
2023-03-24T17:53:42.112Z,63.05
2023-03-24T17:56:09.309Z,63.62
2023-03-24T17:58:36.723Z,64.39
2023-03-24T18:01:09.284Z,65.21
2023-03-24T18:03:38.359Z,65.74
2023-03-24T18:06:12.383Z,66.54
2023-03-24T18:08:40.066Z,66.17
2023-03-24T18:11:13.066Z,66.47
2023-03-24T18:13:40.445Z,67.37
2023-03-24T18:16:19.957Z,67.72
2023-03-24T18:18:48.168Z,67.60
2023-03-24T18:21:15.186Z,67.54
2023-03-24T18:23:41.988Z,68.33
2023-03-24T18:26:09.604Z,67.85
2023-03-24T18:28:39.153Z,67.42
2023-03-24T18:31:20.335Z,67.10
2023-03-24T18:33:48.803Z,65.83
2023-03-24T18:36:21.282Z,67.04
2023-03-24T18:38:48.956Z,67.42
2023-03-24T18:41:18.658Z,68.10
2023-03-24T18:43:48.252Z,68.09
2023-03-24T18:46:16.379Z,68.87
2023-03-24T18:48:44.090Z,69.62
2023-03-24T18:51:11.582Z,69.47
2023-03-24T18:53:38.774Z,70.97
2023-03-24T18:56:07.795Z,70.75
2023-03-24T18:58:35.854Z,70.35
2023-03-24T19:01:15.225Z,69.36
2023-03-24T19:03:44.317Z,70.22
2023-03-24T19:06:14.197Z,70.94
2023-03-24T19:08:44.970Z,72.53
2023-03-24T19:11:14.031Z,71.90
2023-03-24T19:13:44.288Z,72.27
2023-03-24T19:16:12.829Z,73.10
2023-03-24T19:18:40.123Z,73.30
2023-03-24T19:21:07.548Z,73.14
2023-03-24T19:23:35.149Z,73.53
2023-03-24T19:26:03.142Z,74.08
2023-03-24T19:28:32.454Z,74.20
2023-03-24T19:31:05.523Z,75.06
2023-03-24T19:33:32.680Z,75.40
2023-03-24T19:35:59.698Z,75.96
2023-03-24T19:38:26.555Z,76.17
2023-03-24T19:40:54.221Z,75.93
2023-03-24T19:43:22.509Z,76.61
2023-03-24T19:45:54.043Z,77.13
2023-03-24T19:48:21.804Z,76.91
2023-03-24T19:50:53.671Z,78.07
2023-03-24T19:53:23.268Z,77.50
2023-03-24T19:55:52.252Z,78.35
2023-03-24T19:58:19.340Z,78.44
2023-03-24T20:00:46.222Z,77.85
2023-03-24T20:03:13.311Z,77.30
2023-03-24T20:05:40.850Z,77.51
2023-03-24T20:08:07.793Z,77.79
2023-03-24T20:10:36.604Z,77.92
2023-03-24T20:13:03.674Z,76.77
2023-03-24T20:15:30.587Z,76.58
2023-03-24T20:17:58.015Z,75.89
2023-03-24T20:20:25.039Z,74.95
2023-03-24T20:22:52.129Z,75.53
2023-03-24T20:25:22.265Z,75.90
2023-03-24T20:27:49.387Z,75.86
2023-03-24T20:30:18.174Z,75.41
2023-03-24T20:32:45.215Z,76.10
2023-03-24T20:35:12.607Z,76.39
2023-03-24T20:37:40.707Z,76.97
2023-03-24T20:40:09.818Z,77.41
2023-03-24T20:42:37.968Z,78.00
2023-03-24T20:45:07.308Z,78.50
2023-03-24T20:47:34.864Z,78.74
2023-03-24T20:50:01.869Z,78.77
2023-03-24T20:52:30.200Z,79.10
2023-03-24T20:54:57.112Z,79.13
2023-03-24T20:57:25.938Z,79.20
2023-03-24T20:59:53.457Z,80.02
2023-03-24T21:02:20.578Z,80.34
2023-03-24T21:04:47.445Z,80.15
2023-03-24T21:07:14.529Z,80.59
2023-03-24T21:09:41.547Z,80.49
2023-03-24T21:12:09.881Z,80.85
2023-03-24T21:14:37.368Z,81.38
2023-03-24T21:17:04.612Z,81.17
2023-03-24T21:19:33.948Z,80.89
2023-03-24T21:22:03.301Z,82.22
2023-03-24T21:24:30.351Z,81.58
2023-03-24T21:26:57.803Z,80.99
2023-03-24T21:29:26.254Z,80.34
2023-03-24T21:31:53.341Z,79.59
2023-03-24T21:34:20.704Z,79.92
2023-03-24T21:36:49.671Z,79.44
2023-03-24T21:39:17.328Z,79.19
2023-03-24T21:41:44.490Z,80.51
2023-03-24T21:44:11.694Z,80.41
2023-03-24T21:46:38.546Z,80.42
2023-03-24T21:49:05.667Z,81.24
2023-03-24T21:51:34.964Z,81.33
2023-03-24T21:54:06.905Z,81.44
2023-03-24T21:56:35.336Z,81.21
2023-03-24T21:59:02.875Z,81.45
2023-03-24T22:01:31.381Z,81.74
2023-03-24T22:03:59.116Z,81.42
2023-03-24T22:06:29.349Z,81.15
2023-03-24T22:09:06.586Z,80.79
2023-03-24T22:11:35.373Z,80.93
2023-03-24T22:14:02.579Z,81.52
2023-03-24T22:16:33.282Z,81.24
2023-03-24T22:19:01.905Z,82.65
2023-03-24T22:21:28.770Z,82.77
2023-03-24T22:23:55.493Z,82.94
2023-03-24T22:26:22.136Z,83.46
2023-03-24T22:28:50.748Z,83.75
2023-03-24T22:31:17.415Z,84.12
2023-03-24T22:33:45.060Z,84.18
2023-03-24T22:36:12.945Z,84.35
2023-03-24T22:38:40.261Z,84.40
2023-03-24T22:41:10.095Z,84.49
2023-03-24T22:43:39.729Z,84.54
2023-03-24T22:46:07.193Z,83.49
2023-03-24T22:48:34.489Z,83.13
2023-03-24T22:51:01.593Z,81.87
2023-03-24T22:53:28.945Z,82.03
2023-03-24T22:55:56.393Z,82.98
2023-03-24T22:58:23.551Z,83.61
2023-03-24T23:00:54.405Z,83.91
2023-03-24T23:03:21.356Z,84.31
2023-03-24T23:05:49.422Z,84.14
2023-03-24T23:08:16.738Z,83.76
2023-03-24T23:10:45.628Z,83.90
2023-03-24T23:13:12.918Z,83.66
2023-03-24T23:15:44.893Z,83.17
2023-03-24T23:18:12.230Z,83.85
2023-03-24T23:20:39.457Z,83.55
2023-03-24T23:23:07.066Z,83.95
2023-03-24T23:25:43.491Z,84.28
2023-03-24T23:28:12.205Z,84.30
2023-03-24T23:30:40.261Z,84.63
2023-03-24T23:33:14.840Z,84.88
2023-03-24T23:35:42.129Z,84.86
2023-03-24T23:38:09.699Z,84.29
2023-03-24T23:40:36.575Z,84.09
2023-03-24T23:43:03.731Z,83.95
2023-03-24T23:45:30.547Z,84.20
2023-03-24T23:47:57.637Z,84.90
2023-03-24T23:50:24.687Z,85.37
2023-03-24T23:52:51.782Z,84.95
2023-03-24T23:55:18.720Z,84.82
2023-03-24T23:57:46.404Z,84.87
